Ayr, North Dakota
Current Conditions -  °F | °C
As of 11:55 AM on Monday 24 Nov 2014 (Local Time) from KBAC Reporting Station
Light Snow Light Snow  
Wind Chill: -5°   Ceiling: 1200
Heat Index: 14°   Visibility: 10mi
Dew Point:   Wind: 25mph
Humidity: 79%   Direction: 330°NNW
Pressure: 29.78"   Gusts: 32mph
Location:  47.04°N, 97.49°W
Report Text: KBAC 241755Z AUTO 33022G28KT 10SM -SN BKN012 M10/M13 A2978 RMK AO2 P0002
Loading
Personal Weather Stations






























Interactive Weather Map New forecast layout! Learn more

10-Day Weather Forecast

Advertisements
Track Severe Weather on mobile